sensor_id;sensor_type;location;lat;lon;timestamp;P1;durP1;ratioP1;P2;durP2;ratioP2
16928;SDS011;8581;47.334;11.190;2023-01-15T00:01:56;1.13;;;0.70;;
16928;SDS011;8581;47.334;11.190;2023-01-15T00:04:27;0.80;;;0.60;;
16928;SDS011;8581;47.334;11.190;2023-01-15T00:07:00;1.03;;;0.80;;
16928;SDS011;8581;47.334;11.190;2023-01-15T00:09:34;0.57;;;0.57;;
16928;SDS011;8581;47.334;11.190;2023-01-15T00:12:06;0.60;;;0.60;;
16928;SDS011;8581;47.334;11.190;2023-01-15T00:14:40;0.67;;;0.67;;
16928;SDS011;8581;47.334;11.190;2023-01-15T00:17:12;0.50;;;0.43;;
16928;SDS011;8581;47.334;11.190;2023-01-15T00:19:45;0.83;;;0.80;;
16928;SDS011;8581;47.334;11.190;2023-01-15T00:22:35;0.63;;;0.63;;
16928;SDS011;8581;47.334;11.190;2023-01-15T00:25:08;0.50;;;0.50;;
16928;SDS011;8581;47.334;11.190;2023-01-15T00:27:45;0.53;;;0.53;;
16928;SDS011;8581;47.334;11.190;2023-01-15T00:30:17;1.30;;;0.93;;
16928;SDS011;8581;47.334;11.190;2023-01-15T00:32:48;0.70;;;0.70;;
16928;SDS011;8581;47.334;11.190;2023-01-15T00:35:20;0.70;;;0.70;;
16928;SDS011;8581;47.334;11.190;2023-01-15T00:37:52;0.63;;;0.63;;
16928;SDS011;8581;47.334;11.190;2023-01-15T00:40:23;0.80;;;0.50;;
16928;SDS011;8581;47.334;11.190;2023-01-15T00:42:55;0.63;;;0.63;;
16928;SDS011;8581;47.334;11.190;2023-01-15T00:45:26;0.50;;;0.50;;
16928;SDS011;8581;47.334;11.190;2023-01-15T00:47:58;0.80;;;0.80;;
16928;SDS011;8581;47.334;11.190;2023-01-15T00:50:30;0.90;;;0.70;;
16928;SDS011;8581;47.334;11.190;2023-01-15T00:53:01;0.60;;;0.60;;
16928;SDS011;8581;47.334;11.190;2023-01-15T00:55:33;0.90;;;0.70;;
16928;SDS011;8581;47.334;11.190;2023-01-15T00:58:04;0.60;;;0.60;;
16928;SDS011;8581;47.334;11.190;2023-01-15T01:00:36;1.03;;;0.70;;
16928;SDS011;8581;47.334;11.190;2023-01-15T01:03:07;0.70;;;0.70;;
16928;SDS011;8581;47.334;11.190;2023-01-15T01:05:39;1.00;;;0.70;;
16928;SDS011;8581;47.334;11.190;2023-01-15T01:08:11;1.20;;;1.10;;
16928;SDS011;8581;47.334;11.190;2023-01-15T01:10:42;1.00;;;0.90;;
16928;SDS011;8581;47.334;11.190;2023-01-15T01:13:14;0.90;;;0.63;;
16928;SDS011;8581;47.334;11.190;2023-01-15T01:15:46;0.83;;;0.57;;
16928;SDS011;8581;47.334;11.190;2023-01-15T01:18:18;0.63;;;0.60;;
16928;SDS011;8581;47.334;11.190;2023-01-15T01:20:50;0.70;;;0.70;;
16928;SDS011;8581;47.334;11.190;2023-01-15T01:23:22;0.73;;;0.73;;
16928;SDS011;8581;47.334;11.190;2023-01-15T01:25:53;0.90;;;0.80;;
16928;SDS011;8581;47.334;11.190;2023-01-15T01:28:24;0.90;;;0.70;;
16928;SDS011;8581;47.334;11.190;2023-01-15T01:30:56;0.60;;;0.60;;
16928;SDS011;8581;47.334;11.190;2023-01-15T01:33:28;0.67;;;0.67;;
16928;SDS011;8581;47.334;11.190;2023-01-15T01:35:59;1.83;;;0.80;;
16928;SDS011;8581;47.334;11.190;2023-01-15T01:38:31;1.20;;;0.70;;
16928;SDS011;8581;47.334;11.190;2023-01-15T01:41:02;0.83;;;0.60;;
16928;SDS011;8581;47.334;11.190;2023-01-15T01:43:50;0.70;;;0.70;;
16928;SDS011;8581;47.334;11.190;2023-01-15T01:46:06;1.00;;;0.70;;
16928;SDS011;8581;47.334;11.190;2023-01-15T01:48:37;0.60;;;0.60;;
16928;SDS011;8581;47.334;11.190;2023-01-15T01:51:09;0.73;;;0.73;;
16928;SDS011;8581;47.334;11.190;2023-01-15T01:53:41;0.93;;;0.60;;
16928;SDS011;8581;47.334;11.190;2023-01-15T01:56:12;0.63;;;0.63;;
16928;SDS011;8581;47.334;11.190;2023-01-15T01:58:44;0.80;;;0.60;;
16928;SDS011;8581;47.334;11.190;2023-01-15T02:01:16;0.97;;;0.60;;
16928;SDS011;8581;47.334;11.190;2023-01-15T02:03:48;2.10;;;0.80;;
16928;SDS011;8581;47.334;11.190;2023-01-15T02:06:19;0.63;;;0.60;;
16928;SDS011;8581;47.334;11.190;2023-01-15T02:08:51;0.70;;;0.70;;
16928;SDS011;8581;47.334;11.190;2023-01-15T02:11:23;0.60;;;0.60;;
16928;SDS011;8581;47.334;11.190;2023-01-15T02:13:59;0.70;;;0.70;;
16928;SDS011;8581;47.334;11.190;2023-01-15T02:16:45;1.00;;;0.73;;
16928;SDS011;8581;47.334;11.190;2023-01-15T02:20:24;1.00;;;0.80;;
16928;SDS011;8581;47.334;11.190;2023-01-15T02:22:13;2.13;;;0.97;;
16928;SDS011;8581;47.334;11.190;2023-01-15T02:28:00;0.50;;;0.50;;
16928;SDS011;8581;47.334;11.190;2023-01-15T02:30:31;0.60;;;0.60;;
16928;SDS011;8581;47.334;11.190;2023-01-15T02:33:11;1.27;;;0.50;;
16928;SDS011;8581;47.334;11.190;2023-01-15T02:35:47;0.50;;;0.50;;
16928;SDS011;8581;47.334;11.190;2023-01-15T02:38:20;0.80;;;0.60;;
16928;SDS011;8581;47.334;11.190;2023-01-15T02:40:51;0.80;;;0.50;;
16928;SDS011;8581;47.334;11.190;2023-01-15T02:43:21;1.83;;;0.60;;
16928;SDS011;8581;47.334;11.190;2023-01-15T02:45:53;0.70;;;0.60;;
16928;SDS011;8581;47.334;11.190;2023-01-15T02:48:25;0.77;;;0.60;;
16928;SDS011;8581;47.334;11.190;2023-01-15T02:50:58;1.63;;;0.67;;
16928;SDS011;8581;47.334;11.190;2023-01-15T02:53:29;1.13;;;0.70;;
16928;SDS011;8581;47.334;11.190;2023-01-15T02:56:02;0.70;;;0.53;;
16928;SDS011;8581;47.334;11.190;2023-01-15T02:58:33;0.50;;;0.50;;
16928;SDS011;8581;47.334;11.190;2023-01-15T03:01:06;2.40;;;0.60;;
16928;SDS011;8581;47.334;11.190;2023-01-15T03:03:41;0.60;;;0.60;;
16928;SDS011;8581;47.334;11.190;2023-01-15T03:06:25;1.33;;;0.60;;
16928;SDS011;8581;47.334;11.190;2023-01-15T03:08:58;0.93;;;0.70;;
16928;SDS011;8581;47.334;11.190;2023-01-15T03:11:29;0.53;;;0.53;;
16928;SDS011;8581;47.334;11.190;2023-01-15T03:14:04;0.70;;;0.70;;
16928;SDS011;8581;47.334;11.190;2023-01-15T03:16:35;0.53;;;0.53;;
16928;SDS011;8581;47.334;11.190;2023-01-15T03:19:19;0.77;;;0.60;;
16928;SDS011;8581;47.334;11.190;2023-01-15T03:21:52;0.80;;;0.80;;
16928;SDS011;8581;47.334;11.190;2023-01-15T03:24:24;0.97;;;0.60;;
16928;SDS011;8581;47.334;11.190;2023-01-15T03:26:58;0.97;;;0.57;;
16928;SDS011;8581;47.334;11.190;2023-01-15T03:29:30;0.50;;;0.50;;
16928;SDS011;8581;47.334;11.190;2023-01-15T03:32:01;0.57;;;0.53;;
16928;SDS011;8581;47.334;11.190;2023-01-15T03:34:37;0.80;;;0.70;;
16928;SDS011;8581;47.334;11.190;2023-01-15T03:37:05;2.67;;;2.23;;
16928;SDS011;8581;47.334;11.190;2023-01-15T03:39:36;4.43;;;3.60;;
16928;SDS011;8581;47.334;11.190;2023-01-15T03:42:14;0.80;;;0.80;;
16928;SDS011;8581;47.334;11.190;2023-01-15T03:44:56;1.50;;;0.80;;
16928;SDS011;8581;47.334;11.190;2023-01-15T03:47:29;0.67;;;0.67;;
16928;SDS011;8581;47.334;11.190;2023-01-15T03:50:07;1.00;;;0.67;;
16928;SDS011;8581;47.334;11.190;2023-01-15T03:53:19;0.70;;;0.60;;
16928;SDS011;8581;47.334;11.190;2023-01-15T03:55:38;0.77;;;0.50;;
16928;SDS011;8581;47.334;11.190;2023-01-15T04:00:49;0.50;;;0.50;;
16928;SDS011;8581;47.334;11.190;2023-01-15T04:03:20;0.50;;;0.50;;
16928;SDS011;8581;47.334;11.190;2023-01-15T04:05:51;0.77;;;0.63;;
16928;SDS011;8581;47.334;11.190;2023-01-15T04:08:23;0.87;;;0.53;;
16928;SDS011;8581;47.334;11.190;2023-01-15T04:10:55;1.03;;;0.60;;
16928;SDS011;8581;47.334;11.190;2023-01-15T04:13:27;0.77;;;0.60;;
16928;SDS011;8581;47.334;11.190;2023-01-15T04:15:58;1.17;;;0.50;;
16928;SDS011;8581;47.334;11.190;2023-01-15T04:18:29;0.70;;;0.70;;
16928;SDS011;8581;47.334;11.190;2023-01-15T04:21:01;0.60;;;0.60;;
16928;SDS011;8581;47.334;11.190;2023-01-15T04:23:32;0.67;;;0.67;;
16928;SDS011;8581;47.334;11.190;2023-01-15T04:26:04;0.60;;;0.60;;
16928;SDS011;8581;47.334;11.190;2023-01-15T04:28:36;0.73;;;0.50;;
16928;SDS011;8581;47.334;11.190;2023-01-15T04:31:07;0.70;;;0.70;;
16928;SDS011;8581;47.334;11.190;2023-01-15T04:33:39;0.67;;;0.60;;
16928;SDS011;8581;47.334;11.190;2023-01-15T04:36:11;1.03;;;0.53;;
16928;SDS011;8581;47.334;11.190;2023-01-15T04:38:42;0.90;;;0.60;;
16928;SDS011;8581;47.334;11.190;2023-01-15T04:41:14;0.50;;;0.50;;
16928;SDS011;8581;47.334;11.190;2023-01-15T04:43:51;0.87;;;0.63;;
16928;SDS011;8581;47.334;11.190;2023-01-15T04:46:28;0.50;;;0.50;;
16928;SDS011;8581;47.334;11.190;2023-01-15T04:49:00;1.67;;;0.70;;
16928;SDS011;8581;47.334;11.190;2023-01-15T04:51:32;0.50;;;0.50;;
16928;SDS011;8581;47.334;11.190;2023-01-15T04:54:03;0.83;;;0.63;;
16928;SDS011;8581;47.334;11.190;2023-01-15T04:56:37;0.70;;;0.70;;
16928;SDS011;8581;47.334;11.190;2023-01-15T04:59:08;1.00;;;0.70;;
16928;SDS011;8581;47.334;11.190;2023-01-15T05:01:39;0.73;;;0.60;;
16928;SDS011;8581;47.334;11.190;2023-01-15T05:04:10;0.77;;;0.70;;
16928;SDS011;8581;47.334;11.190;2023-01-15T05:06:42;0.60;;;0.60;;
16928;SDS011;8581;47.334;11.190;2023-01-15T05:09:14;0.57;;;0.57;;
16928;SDS011;8581;47.334;11.190;2023-01-15T05:11:45;1.10;;;0.80;;
16928;SDS011;8581;47.334;11.190;2023-01-15T05:14:17;0.70;;;0.60;;
16928;SDS011;8581;47.334;11.190;2023-01-15T05:16:49;0.60;;;0.60;;
16928;SDS011;8581;47.334;11.190;2023-01-15T05:19:20;0.57;;;0.57;;
16928;SDS011;8581;47.334;11.190;2023-01-15T05:21:52;0.60;;;0.60;;
16928;SDS011;8581;47.334;11.190;2023-01-15T05:24:23;0.63;;;0.63;;
16928;SDS011;8581;47.334;11.190;2023-01-15T05:26:55;1.10;;;0.60;;
16928;SDS011;8581;47.334;11.190;2023-01-15T05:29:27;0.80;;;0.60;;
16928;SDS011;8581;47.334;11.190;2023-01-15T05:31:59;1.00;;;0.70;;
16928;SDS011;8581;47.334;11.190;2023-01-15T05:34:30;0.50;;;0.50;;
16928;SDS011;8581;47.334;11.190;2023-01-15T05:37:02;0.50;;;0.50;;
16928;SDS011;8581;47.334;11.190;2023-01-15T05:39:34;1.90;;;0.70;;
16928;SDS011;8581;47.334;11.190;2023-01-15T05:42:05;1.10;;;1.00;;
16928;SDS011;8581;47.334;11.190;2023-01-15T05:44:37;0.60;;;0.60;;
16928;SDS011;8581;47.334;11.190;2023-01-15T05:47:09;0.50;;;0.50;;
16928;SDS011;8581;47.334;11.190;2023-01-15T05:49:40;0.80;;;0.63;;
16928;SDS011;8581;47.334;11.190;2023-01-15T05:52:12;0.93;;;0.80;;
16928;SDS011;8581;47.334;11.190;2023-01-15T05:54:43;1.60;;;0.73;;
16928;SDS011;8581;47.334;11.190;2023-01-15T05:57:15;0.60;;;0.50;;
16928;SDS011;8581;47.334;11.190;2023-01-15T05:59:47;0.50;;;0.50;;
16928;SDS011;8581;47.334;11.190;2023-01-15T06:02:18;0.50;;;0.50;;
16928;SDS011;8581;47.334;11.190;2023-01-15T06:04:50;1.00;;;0.60;;
16928;SDS011;8581;47.334;11.190;2023-01-15T06:07:22;0.83;;;0.60;;
16928;SDS011;8581;47.334;11.190;2023-01-15T06:09:53;0.60;;;0.60;;
16928;SDS011;8581;47.334;11.190;2023-01-15T06:12:25;1.97;;;1.20;;
16928;SDS011;8581;47.334;11.190;2023-01-15T06:14:56;0.93;;;0.83;;
16928;SDS011;8581;47.334;11.190;2023-01-15T06:17:28;2.40;;;1.67;;
16928;SDS011;8581;47.334;11.190;2023-01-15T06:19:59;1.80;;;1.40;;
16928;SDS011;8581;47.334;11.190;2023-01-15T06:22:31;1.30;;;1.20;;
16928;SDS011;8581;47.334;11.190;2023-01-15T06:25:03;2.60;;;1.70;;
16928;SDS011;8581;47.334;11.190;2023-01-15T06:27:35;4.13;;;1.30;;
16928;SDS011;8581;47.334;11.190;2023-01-15T06:30:07;1.10;;;0.90;;
16928;SDS011;8581;47.334;11.190;2023-01-15T06:32:39;1.83;;;1.40;;
16928;SDS011;8581;47.334;11.190;2023-01-15T06:35:11;1.20;;;1.10;;
16928;SDS011;8581;47.334;11.190;2023-01-15T06:37:43;1.67;;;1.40;;
16928;SDS011;8581;47.334;11.190;2023-01-15T06:40:14;2.33;;;2.07;;
16928;SDS011;8581;47.334;11.190;2023-01-15T06:42:47;2.73;;;2.47;;
16928;SDS011;8581;47.334;11.190;2023-01-15T06:45:24;2.20;;;1.80;;
16928;SDS011;8581;47.334;11.190;2023-01-15T06:48:01;2.93;;;2.27;;
16928;SDS011;8581;47.334;11.190;2023-01-15T06:50:33;2.10;;;1.83;;
16928;SDS011;8581;47.334;11.190;2023-01-15T06:53:04;1.63;;;1.53;;
16928;SDS011;8581;47.334;11.190;2023-01-15T06:55:36;5.00;;;1.80;;
16928;SDS011;8581;47.334;11.190;2023-01-15T06:58:07;1.90;;;1.37;;
16928;SDS011;8581;47.334;11.190;2023-01-15T07:00:39;1.97;;;1.50;;
16928;SDS011;8581;47.334;11.190;2023-01-15T07:03:11;1.90;;;1.33;;
16928;SDS011;8581;47.334;11.190;2023-01-15T07:05:43;1.67;;;1.53;;
16928;SDS011;8581;47.334;11.190;2023-01-15T07:08:14;1.10;;;0.90;;
16928;SDS011;8581;47.334;11.190;2023-01-15T07:10:46;2.20;;;0.90;;
16928;SDS011;8581;47.334;11.190;2023-01-15T07:13:18;1.63;;;1.00;;
16928;SDS011;8581;47.334;11.190;2023-01-15T07:15:49;1.27;;;1.17;;
16928;SDS011;8581;47.334;11.190;2023-01-15T07:18:21;1.23;;;1.07;;
16928;SDS011;8581;47.334;11.190;2023-01-15T07:20:54;2.20;;;2.00;;
16928;SDS011;8581;47.334;11.190;2023-01-15T07:23:25;3.33;;;2.30;;
16928;SDS011;8581;47.334;11.190;2023-01-15T07:25:57;2.37;;;2.17;;
16928;SDS011;8581;47.334;11.190;2023-01-15T07:28:28;1.70;;;1.60;;
16928;SDS011;8581;47.334;11.190;2023-01-15T07:31:00;1.97;;;1.70;;
16928;SDS011;8581;47.334;11.190;2023-01-15T07:33:31;1.73;;;1.50;;
16928;SDS011;8581;47.334;11.190;2023-01-15T07:36:03;1.57;;;1.47;;
16928;SDS011;8581;47.334;11.190;2023-01-15T07:38:35;4.03;;;3.50;;
16928;SDS011;8581;47.334;11.190;2023-01-15T07:41:07;7.83;;;5.00;;
16928;SDS011;8581;47.334;11.190;2023-01-15T07:43:44;3.63;;;3.10;;
16928;SDS011;8581;47.334;11.190;2023-01-15T07:46:21;2.90;;;2.20;;
16928;SDS011;8581;47.334;11.190;2023-01-15T07:48:59;2.40;;;2.20;;
16928;SDS011;8581;47.334;11.190;2023-01-15T07:51:36;2.73;;;2.43;;
16928;SDS011;8581;47.334;11.190;2023-01-15T07:54:07;2.77;;;2.10;;
16928;SDS011;8581;47.334;11.190;2023-01-15T07:56:39;2.23;;;1.70;;
16928;SDS011;8581;47.334;11.190;2023-01-15T07:59:11;1.50;;;1.40;;
16928;SDS011;8581;47.334;11.190;2023-01-15T08:01:42;2.37;;;1.83;;
16928;SDS011;8581;47.334;11.190;2023-01-15T08:04:14;3.10;;;1.97;;
16928;SDS011;8581;47.334;11.190;2023-01-15T08:06:45;2.10;;;1.53;;
16928;SDS011;8581;47.334;11.190;2023-01-15T08:09:17;2.43;;;1.70;;
16928;SDS011;8581;47.334;11.190;2023-01-15T08:11:50;2.63;;;1.80;;
16928;SDS011;8581;47.334;11.190;2023-01-15T08:14:27;3.67;;;1.87;;
16928;SDS011;8581;47.334;11.190;2023-01-15T08:17:04;2.00;;;1.70;;
16928;SDS011;8581;47.334;11.190;2023-01-15T08:19:36;2.27;;;1.80;;
16928;SDS011;8581;47.334;11.190;2023-01-15T08:22:10;2.50;;;2.30;;
16928;SDS011;8581;47.334;11.190;2023-01-15T08:24:42;1.97;;;1.77;;
16928;SDS011;8581;47.334;11.190;2023-01-15T08:27:13;2.63;;;2.10;;
16928;SDS011;8581;47.334;11.190;2023-01-15T08:29:45;1.50;;;1.30;;
16928;SDS011;8581;47.334;11.190;2023-01-15T08:32:16;5.33;;;3.57;;
16928;SDS011;8581;47.334;11.190;2023-01-15T08:34:48;3.30;;;1.90;;
16928;SDS011;8581;47.334;11.190;2023-01-15T08:37:20;2.40;;;2.20;;
16928;SDS011;8581;47.334;11.190;2023-01-15T08:39:51;2.40;;;2.20;;
16928;SDS011;8581;47.334;11.190;2023-01-15T08:42:23;2.90;;;2.60;;
16928;SDS011;8581;47.334;11.190;2023-01-15T08:44:55;3.63;;;2.83;;
16928;SDS011;8581;47.334;11.190;2023-01-15T08:47:27;4.13;;;3.07;;
16928;SDS011;8581;47.334;11.190;2023-01-15T08:49:59;4.40;;;2.80;;
16928;SDS011;8581;47.334;11.190;2023-01-15T08:52:31;3.10;;;2.40;;
16928;SDS011;8581;47.334;11.190;2023-01-15T08:55:02;4.60;;;2.60;;
16928;SDS011;8581;47.334;11.190;2023-01-15T08:57:34;4.60;;;3.07;;
16928;SDS011;8581;47.334;11.190;2023-01-15T09:00:13;3.70;;;1.07;;
16928;SDS011;8581;47.334;11.190;2023-01-15T09:02:45;2.03;;;1.47;;
16928;SDS011;8581;47.334;11.190;2023-01-15T09:05:16;1.60;;;1.50;;
16928;SDS011;8581;47.334;11.190;2023-01-15T09:07:48;1.33;;;1.23;;
16928;SDS011;8581;47.334;11.190;2023-01-15T09:10:20;1.10;;;1.00;;
16928;SDS011;8581;47.334;11.190;2023-01-15T09:12:51;0.90;;;0.90;;
16928;SDS011;8581;47.334;11.190;2023-01-15T09:15:23;0.93;;;0.80;;
16928;SDS011;8581;47.334;11.190;2023-01-15T09:17:55;1.10;;;0.90;;
16928;SDS011;8581;47.334;11.190;2023-01-15T09:20:26;0.80;;;0.60;;
16928;SDS011;8581;47.334;11.190;2023-01-15T09:22:58;0.70;;;0.70;;
16928;SDS011;8581;47.334;11.190;2023-01-15T09:25:29;0.70;;;0.70;;
16928;SDS011;8581;47.334;11.190;2023-01-15T09:28:01;0.60;;;0.60;;
16928;SDS011;8581;47.334;11.190;2023-01-15T09:30:32;0.80;;;0.70;;
16928;SDS011;8581;47.334;11.190;2023-01-15T09:33:04;1.03;;;0.93;;
16928;SDS011;8581;47.334;11.190;2023-01-15T09:35:36;1.27;;;0.77;;
16928;SDS011;8581;47.334;11.190;2023-01-15T09:38:10;1.30;;;0.77;;
16928;SDS011;8581;47.334;11.190;2023-01-15T09:40:47;0.80;;;0.80;;
16928;SDS011;8581;47.334;11.190;2023-01-15T09:43:21;0.97;;;0.77;;
16928;SDS011;8581;47.334;11.190;2023-01-15T09:46:11;1.13;;;1.00;;
16928;SDS011;8581;47.334;11.190;2023-01-15T09:49:01;1.40;;;1.30;;
16928;SDS011;8581;47.334;11.190;2023-01-15T09:51:36;0.87;;;0.80;;
16928;SDS011;8581;47.334;11.190;2023-01-15T09:54:13;1.30;;;0.77;;
16928;SDS011;8581;47.334;11.190;2023-01-15T09:56:45;0.80;;;0.80;;
16928;SDS011;8581;47.334;11.190;2023-01-15T09:59:28;0.90;;;0.90;;
16928;SDS011;8581;47.334;11.190;2023-01-15T10:02:00;0.90;;;0.80;;
16928;SDS011;8581;47.334;11.190;2023-01-15T10:04:36;0.90;;;0.80;;
16928;SDS011;8581;47.334;11.190;2023-01-15T10:09:46;2.53;;;0.90;;
16928;SDS011;8581;47.334;11.190;2023-01-15T10:12:19;0.97;;;0.97;;
16928;SDS011;8581;47.334;11.190;2023-01-15T10:14:58;1.80;;;1.07;;
16928;SDS011;8581;47.334;11.190;2023-01-15T10:17:39;1.50;;;1.20;;
16928;SDS011;8581;47.334;11.190;2023-01-15T10:20:15;2.00;;;1.23;;
16928;SDS011;8581;47.334;11.190;2023-01-15T10:23:03;2.97;;;1.40;;
16928;SDS011;8581;47.334;11.190;2023-01-15T10:25:34;1.10;;;1.00;;
16928;SDS011;8581;47.334;11.190;2023-01-15T10:28:04;0.87;;;0.80;;
16928;SDS011;8581;47.334;11.190;2023-01-15T10:30:38;1.43;;;0.93;;
16928;SDS011;8581;47.334;11.190;2023-01-15T10:33:15;1.70;;;1.10;;
16928;SDS011;8581;47.334;11.190;2023-01-15T10:36:00;0.87;;;0.83;;
16928;SDS011;8581;47.334;11.190;2023-01-15T10:41:36;1.00;;;0.90;;
16928;SDS011;8581;47.334;11.190;2023-01-15T10:44:13;1.77;;;1.07;;
16928;SDS011;8581;47.334;11.190;2023-01-15T10:46:45;1.97;;;1.10;;
16928;SDS011;8581;47.334;11.190;2023-01-15T10:49:16;1.00;;;0.90;;
16928;SDS011;8581;47.334;11.190;2023-01-15T10:51:49;0.83;;;0.77;;
16928;SDS011;8581;47.334;11.190;2023-01-15T10:54:25;0.97;;;0.90;;
16928;SDS011;8581;47.334;11.190;2023-01-15T10:57:03;1.10;;;1.00;;
16928;SDS011;8581;47.334;11.190;2023-01-15T10:59:37;0.67;;;0.67;;
16928;SDS011;8581;47.334;11.190;2023-01-15T11:05:05;1.33;;;0.80;;
16928;SDS011;8581;47.334;11.190;2023-01-15T11:07:38;2.47;;;0.80;;
16928;SDS011;8581;47.334;11.190;2023-01-15T11:10:10;1.13;;;1.03;;
16928;SDS011;8581;47.334;11.190;2023-01-15T11:12:49;1.00;;;0.90;;
16928;SDS011;8581;47.334;11.190;2023-01-15T11:15:30;1.37;;;1.00;;
16928;SDS011;8581;47.334;11.190;2023-01-15T11:18:11;2.43;;;0.87;;
16928;SDS011;8581;47.334;11.190;2023-01-15T11:20:47;1.00;;;0.90;;
16928;SDS011;8581;47.334;11.190;2023-01-15T11:23:19;1.50;;;0.93;;
16928;SDS011;8581;47.334;11.190;2023-01-15T11:25:52;2.17;;;0.67;;
16928;SDS011;8581;47.334;11.190;2023-01-15T11:31:01;0.57;;;0.57;;
16928;SDS011;8581;47.334;11.190;2023-01-15T11:33:34;0.77;;;0.70;;
16928;SDS011;8581;47.334;11.190;2023-01-15T11:36:07;1.10;;;0.97;;
16928;SDS011;8581;47.334;11.190;2023-01-15T11:38:46;1.53;;;1.27;;
16928;SDS011;8581;47.334;11.190;2023-01-15T11:44:13;1.27;;;0.93;;
16928;SDS011;8581;47.334;11.190;2023-01-15T11:46:53;1.00;;;0.90;;
16928;SDS011;8581;47.334;11.190;2023-01-15T11:49:27;1.10;;;0.90;;
16928;SDS011;8581;47.334;11.190;2023-01-15T11:52:05;2.03;;;0.70;;
16928;SDS011;8581;47.334;11.190;2023-01-15T11:54:37;2.10;;;0.90;;
16928;SDS011;8581;47.334;11.190;2023-01-15T11:57:09;0.90;;;0.90;;
16928;SDS011;8581;47.334;11.190;2023-01-15T11:59:40;1.20;;;1.10;;
16928;SDS011;8581;47.334;11.190;2023-01-15T12:02:15;2.50;;;1.33;;
16928;SDS011;8581;47.334;11.190;2023-01-15T12:04:48;1.37;;;1.00;;
16928;SDS011;8581;47.334;11.190;2023-01-15T12:07:19;2.07;;;1.10;;
16928;SDS011;8581;47.334;11.190;2023-01-15T12:09:56;1.77;;;1.00;;
16928;SDS011;8581;47.334;11.190;2023-01-15T12:12:38;1.70;;;1.10;;
16928;SDS011;8581;47.334;11.190;2023-01-15T12:15:11;1.23;;;1.10;;
16928;SDS011;8581;47.334;11.190;2023-01-15T12:20:39;1.13;;;0.90;;
16928;SDS011;8581;47.334;11.190;2023-01-15T12:23:25;1.30;;;1.20;;
16928;SDS011;8581;47.334;11.190;2023-01-15T12:26:35;1.20;;;1.10;;
16928;SDS011;8581;47.334;11.190;2023-01-15T12:28:53;1.10;;;1.00;;
16928;SDS011;8581;47.334;11.190;2023-01-15T12:31:28;1.90;;;0.90;;
16928;SDS011;8581;47.334;11.190;2023-01-15T12:34:16;0.93;;;0.80;;
16928;SDS011;8581;47.334;11.190;2023-01-15T12:39:56;1.97;;;0.80;;
16928;SDS011;8581;47.334;11.190;2023-01-15T12:42:25;1.37;;;0.83;;
16928;SDS011;8581;47.334;11.190;2023-01-15T12:45:06;0.97;;;0.97;;
16928;SDS011;8581;47.334;11.190;2023-01-15T12:50:33;1.37;;;1.00;;
16928;SDS011;8581;47.334;11.190;2023-01-15T12:53:14;1.60;;;0.70;;
16928;SDS011;8581;47.334;11.190;2023-01-15T12:55:56;1.33;;;0.80;;
16928;SDS011;8581;47.334;11.190;2023-01-15T12:58:30;0.53;;;0.53;;
16928;SDS011;8581;47.334;11.190;2023-01-15T13:01:16;0.60;;;0.60;;
16928;SDS011;8581;47.334;11.190;2023-01-15T13:03:55;0.60;;;0.47;;
16928;SDS011;8581;47.334;11.190;2023-01-15T13:06:23;0.40;;;0.40;;
16928;SDS011;8581;47.334;11.190;2023-01-15T13:08:57;0.30;;;0.30;;
16928;SDS011;8581;47.334;11.190;2023-01-15T13:11:30;0.30;;;0.30;;
16928;SDS011;8581;47.334;11.190;2023-01-15T13:14:02;0.30;;;0.27;;
16928;SDS011;8581;47.334;11.190;2023-01-15T13:16:43;0.20;;;0.20;;
16928;SDS011;8581;47.334;11.190;2023-01-15T13:22:11;0.10;;;0.10;;
16928;SDS011;8581;47.334;11.190;2023-01-15T13:27:28;0.20;;;0.20;;
16928;SDS011;8581;47.334;11.190;2023-01-15T13:30:04;0.00;;;0.00;;
16928;SDS011;8581;47.334;11.190;2023-01-15T13:32:49;0.00;;;0.00;;
16928;SDS011;8581;47.334;11.190;2023-01-15T13:35:26;0.00;;;0.00;;
16928;SDS011;8581;47.334;11.190;2023-01-15T13:37:56;0.20;;;0.20;;
16928;SDS011;8581;47.334;11.190;2023-01-15T13:40:28;0.30;;;0.03;;
16928;SDS011;8581;47.334;11.190;2023-01-15T13:42:59;0.00;;;0.00;;
16928;SDS011;8581;47.334;11.190;2023-01-15T13:45:32;0.00;;;0.00;;
16928;SDS011;8581;47.334;11.190;2023-01-15T13:48:04;0.00;;;0.00;;
16928;SDS011;8581;47.334;11.190;2023-01-15T13:50:35;0.10;;;0.10;;
16928;SDS011;8581;47.334;11.190;2023-01-15T13:53:27;0.47;;;0.10;;
16928;SDS011;8581;47.334;11.190;2023-01-15T13:56:00;0.00;;;0.00;;
16928;SDS011;8581;47.334;11.190;2023-01-15T13:58:32;0.00;;;0.00;;
16928;SDS011;8581;47.334;11.190;2023-01-15T14:01:07;0.23;;;0.10;;
16928;SDS011;8581;47.334;11.190;2023-01-15T14:03:37;0.10;;;0.03;;
16928;SDS011;8581;47.334;11.190;2023-01-15T14:06:09;0.00;;;0.00;;
16928;SDS011;8581;47.334;11.190;2023-01-15T14:08:42;0.30;;;0.00;;
16928;SDS011;8581;47.334;11.190;2023-01-15T14:11:33;0.07;;;0.00;;
16928;SDS011;8581;47.334;11.190;2023-01-15T14:14:15;0.00;;;0.00;;
16928;SDS011;8581;47.334;11.190;2023-01-15T14:17:08;0.10;;;0.00;;
16928;SDS011;8581;47.334;11.190;2023-01-15T14:20:01;0.10;;;0.10;;
16928;SDS011;8581;47.334;11.190;2023-01-15T14:22:35;0.00;;;0.00;;
16928;SDS011;8581;47.334;11.190;2023-01-15T14:27:51;0.00;;;0.00;;
16928;SDS011;8581;47.334;11.190;2023-01-15T14:31:12;0.00;;;0.00;;
16928;SDS011;8581;47.334;11.190;2023-01-15T14:33:33;0.10;;;0.10;;
16928;SDS011;8581;47.334;11.190;2023-01-15T14:36:09;0.30;;;0.30;;
16928;SDS011;8581;47.334;11.190;2023-01-15T14:38:49;0.10;;;0.10;;
16928;SDS011;8581;47.334;11.190;2023-01-15T14:41:25;0.07;;;0.07;;
16928;SDS011;8581;47.334;11.190;2023-01-15T14:43:58;0.30;;;0.10;;
16928;SDS011;8581;47.334;11.190;2023-01-15T14:46:30;0.00;;;0.00;;
16928;SDS011;8581;47.334;11.190;2023-01-15T14:49:02;0.00;;;0.00;;
16928;SDS011;8581;47.334;11.190;2023-01-15T14:51:35;1.33;;;0.93;;
16928;SDS011;8581;47.334;11.190;2023-01-15T14:54:06;0.40;;;0.40;;
16928;SDS011;8581;47.334;11.190;2023-01-15T14:56:41;0.53;;;0.20;;
16928;SDS011;8581;47.334;11.190;2023-01-15T14:59:15;0.20;;;0.20;;
16928;SDS011;8581;47.334;11.190;2023-01-15T15:01:55;0.20;;;0.20;;
16928;SDS011;8581;47.334;11.190;2023-01-15T15:04:32;0.00;;;0.00;;
16928;SDS011;8581;47.334;11.190;2023-01-15T15:07:10;0.00;;;0.00;;
16928;SDS011;8581;47.334;11.190;2023-01-15T15:09:51;0.10;;;0.10;;
16928;SDS011;8581;47.334;11.190;2023-01-15T15:12:24;0.13;;;0.10;;
16928;SDS011;8581;47.334;11.190;2023-01-15T15:17:51;0.20;;;0.20;;
16928;SDS011;8581;47.334;11.190;2023-01-15T15:20:28;0.20;;;0.20;;
16928;SDS011;8581;47.334;11.190;2023-01-15T15:23:08;0.20;;;0.20;;
16928;SDS011;8581;47.334;11.190;2023-01-15T15:25:47;0.63;;;0.20;;
16928;SDS011;8581;47.334;11.190;2023-01-15T15:28:18;0.10;;;0.10;;
16928;SDS011;8581;47.334;11.190;2023-01-15T15:30:50;0.40;;;0.40;;
16928;SDS011;8581;47.334;11.190;2023-01-15T15:33:23;0.07;;;0.03;;
16928;SDS011;8581;47.334;11.190;2023-01-15T15:35:54;1.60;;;1.13;;
16928;SDS011;8581;47.334;11.190;2023-01-15T15:38:26;0.40;;;0.30;;
16928;SDS011;8581;47.334;11.190;2023-01-15T15:40:58;0.00;;;0.00;;
16928;SDS011;8581;47.334;11.190;2023-01-15T15:43:34;0.40;;;0.40;;
16928;SDS011;8581;47.334;11.190;2023-01-15T15:46:20;0.67;;;0.40;;
16928;SDS011;8581;47.334;11.190;2023-01-15T15:48:47;5.00;;;3.60;;
16928;SDS011;8581;47.334;11.190;2023-01-15T15:51:52;1.10;;;0.70;;
16928;SDS011;8581;47.334;11.190;2023-01-15T15:54:12;0.30;;;0.30;;
16928;SDS011;8581;47.334;11.190;2023-01-15T15:56:53;0.10;;;0.10;;
16928;SDS011;8581;47.334;11.190;2023-01-15T15:59:28;0.97;;;0.60;;
16928;SDS011;8581;47.334;11.190;2023-01-15T16:01:59;0.17;;;0.17;;
16928;SDS011;8581;47.334;11.190;2023-01-15T16:04:30;0.07;;;0.07;;
16928;SDS011;8581;47.334;11.190;2023-01-15T16:07:10;0.77;;;0.70;;
16928;SDS011;8581;47.334;11.190;2023-01-15T16:09:33;0.07;;;0.07;;